sensor_id;sensor_type;location;lat;lon;timestamp;P1;durP1;ratioP1;P2;durP2;ratioP2
35442;SDS011;21561;55.654;37.592;2023-02-15T00:01:35;6.00;;;1.40;;
35442;SDS011;21561;55.654;37.592;2023-02-15T00:04:03;4.53;;;1.00;;
35442;SDS011;21561;55.654;37.592;2023-02-15T00:06:31;5.90;;;0.95;;
35442;SDS011;21561;55.654;37.592;2023-02-15T00:08:58;4.80;;;0.90;;
35442;SDS011;21561;55.654;37.592;2023-02-15T00:11:25;5.45;;;1.13;;
35442;SDS011;21561;55.654;37.592;2023-02-15T00:14:11;1.33;;;0.70;;
35442;SDS011;21561;55.654;37.592;2023-02-15T00:16:40;4.65;;;1.13;;
35442;SDS011;21561;55.654;37.592;2023-02-15T00:19:12;9.27;;;1.42;;
35442;SDS011;21561;55.654;37.592;2023-02-15T00:22:08;2.55;;;0.65;;
35442;SDS011;21561;55.654;37.592;2023-02-15T00:24:35;5.32;;;1.10;;
35442;SDS011;21561;55.654;37.592;2023-02-15T00:27:02;4.53;;;1.23;;
35442;SDS011;21561;55.654;37.592;2023-02-15T00:29:29;3.97;;;1.15;;
35442;SDS011;21561;55.654;37.592;2023-02-15T00:31:56;5.28;;;0.70;;
35442;SDS011;21561;55.654;37.592;2023-02-15T00:34:23;6.90;;;1.00;;
35442;SDS011;21561;55.654;37.592;2023-02-15T00:36:51;5.47;;;1.10;;
35442;SDS011;21561;55.654;37.592;2023-02-15T00:39:18;6.45;;;1.48;;
35442;SDS011;21561;55.654;37.592;2023-02-15T00:41:46;8.60;;;1.65;;
35442;SDS011;21561;55.654;37.592;2023-02-15T00:44:13;5.13;;;0.85;;
35442;SDS011;21561;55.654;37.592;2023-02-15T00:46:40;2.40;;;0.68;;
35442;SDS011;21561;55.654;37.592;2023-02-15T00:49:08;5.70;;;1.08;;
35442;SDS011;21561;55.654;37.592;2023-02-15T00:51:35;6.90;;;1.27;;
35442;SDS011;21561;55.654;37.592;2023-02-15T00:54:02;4.50;;;1.00;;
35442;SDS011;21561;55.654;37.592;2023-02-15T00:56:32;4.75;;;1.15;;
35442;SDS011;21561;55.654;37.592;2023-02-15T00:59:02;9.07;;;1.15;;
35442;SDS011;21561;55.654;37.592;2023-02-15T01:01:28;3.35;;;0.95;;
35442;SDS011;21561;55.654;37.592;2023-02-15T01:03:55;4.93;;;1.02;;
35442;SDS011;21561;55.654;37.592;2023-02-15T01:06:22;4.03;;;0.90;;
35442;SDS011;21561;55.654;37.592;2023-02-15T01:08:49;5.05;;;0.85;;
35442;SDS011;21561;55.654;37.592;2023-02-15T01:11:18;2.67;;;0.98;;
35442;SDS011;21561;55.654;37.592;2023-02-15T01:13:49;7.22;;;1.38;;
35442;SDS011;21561;55.654;37.592;2023-02-15T01:16:21;4.22;;;1.05;;
35442;SDS011;21561;55.654;37.592;2023-02-15T01:18:49;6.25;;;1.02;;
35442;SDS011;21561;55.654;37.592;2023-02-15T01:21:17;7.25;;;1.45;;
35442;SDS011;21561;55.654;37.592;2023-02-15T01:23:47;4.82;;;0.98;;
35442;SDS011;21561;55.654;37.592;2023-02-15T01:26:15;4.20;;;0.90;;
35442;SDS011;21561;55.654;37.592;2023-02-15T01:28:42;2.70;;;1.10;;
35442;SDS011;21561;55.654;37.592;2023-02-15T01:31:11;7.13;;;1.20;;
35442;SDS011;21561;55.654;37.592;2023-02-15T01:33:40;7.18;;;1.10;;
35442;SDS011;21561;55.654;37.592;2023-02-15T01:36:07;6.68;;;1.30;;
35442;SDS011;21561;55.654;37.592;2023-02-15T01:38:34;6.30;;;1.00;;
35442;SDS011;21561;55.654;37.592;2023-02-15T01:41:02;7.57;;;1.38;;
35442;SDS011;21561;55.654;37.592;2023-02-15T01:46:54;7.25;;;1.30;;
35442;SDS011;21561;55.654;37.592;2023-02-15T01:49:21;4.82;;;0.90;;
35442;SDS011;21561;55.654;37.592;2023-02-15T01:51:53;6.10;;;1.45;;
35442;SDS011;21561;55.654;37.592;2023-02-15T01:54:22;3.03;;;0.90;;
35442;SDS011;21561;55.654;37.592;2023-02-15T01:56:54;4.63;;;0.82;;
35442;SDS011;21561;55.654;37.592;2023-02-15T01:59:24;4.30;;;1.13;;
35442;SDS011;21561;55.654;37.592;2023-02-15T02:01:52;7.25;;;1.38;;
35442;SDS011;21561;55.654;37.592;2023-02-15T02:04:35;10.82;;;1.45;;
35442;SDS011;21561;55.654;37.592;2023-02-15T02:07:09;6.80;;;1.15;;
35442;SDS011;21561;55.654;37.592;2023-02-15T02:09:36;7.97;;;1.40;;
35442;SDS011;21561;55.654;37.592;2023-02-15T02:12:03;7.72;;;1.13;;
35442;SDS011;21561;55.654;37.592;2023-02-15T02:14:30;7.35;;;1.25;;
35442;SDS011;21561;55.654;37.592;2023-02-15T02:19:46;7.30;;;1.20;;
35442;SDS011;21561;55.654;37.592;2023-02-15T02:25:38;6.25;;;1.42;;
35442;SDS011;21561;55.654;37.592;2023-02-15T02:28:53;4.57;;;0.88;;
35442;SDS011;21561;55.654;37.592;2023-02-15T02:34:43;6.32;;;0.98;;
35442;SDS011;21561;55.654;37.592;2023-02-15T02:37:23;6.13;;;1.33;;
35442;SDS011;21561;55.654;37.592;2023-02-15T02:40:05;2.70;;;0.95;;
35442;SDS011;21561;55.654;37.592;2023-02-15T02:42:44;5.30;;;1.17;;
35442;SDS011;21561;55.654;37.592;2023-02-15T02:45:22;9.07;;;1.52;;
35442;SDS011;21561;55.654;37.592;2023-02-15T02:48:06;6.18;;;1.00;;
35442;SDS011;21561;55.654;37.592;2023-02-15T02:50:39;7.75;;;1.23;;
35442;SDS011;21561;55.654;37.592;2023-02-15T02:53:09;8.20;;;1.48;;
35442;SDS011;21561;55.654;37.592;2023-02-15T02:55:39;6.30;;;1.08;;
35442;SDS011;21561;55.654;37.592;2023-02-15T02:58:17;5.53;;;1.10;;
35442;SDS011;21561;55.654;37.592;2023-02-15T03:00:53;9.15;;;1.63;;
35442;SDS011;21561;55.654;37.592;2023-02-15T03:03:27;3.35;;;1.00;;
35442;SDS011;21561;55.654;37.592;2023-02-15T03:06:11;5.45;;;1.17;;
35442;SDS011;21561;55.654;37.592;2023-02-15T03:08:45;6.18;;;1.42;;
35442;SDS011;21561;55.654;37.592;2023-02-15T03:11:16;5.82;;;1.60;;
35442;SDS011;21561;55.654;37.592;2023-02-15T03:13:44;7.28;;;1.40;;
35442;SDS011;21561;55.654;37.592;2023-02-15T03:16:14;9.23;;;1.40;;
35442;SDS011;21561;55.654;37.592;2023-02-15T03:21:28;10.13;;;1.80;;
35442;SDS011;21561;55.654;37.592;2023-02-15T03:24:38;3.45;;;1.10;;
35442;SDS011;21561;55.654;37.592;2023-02-15T03:27:43;8.55;;;1.60;;
35442;SDS011;21561;55.654;37.592;2023-02-15T03:32:41;6.63;;;1.25;;
35442;SDS011;21561;55.654;37.592;2023-02-15T03:35:10;5.47;;;1.33;;
35442;SDS011;21561;55.654;37.592;2023-02-15T03:40:25;15.43;;;1.80;;
35442;SDS011;21561;55.654;37.592;2023-02-15T03:43:16;7.13;;;1.27;;
35442;SDS011;21561;55.654;37.592;2023-02-15T03:46:07;5.72;;;1.10;;
35442;SDS011;21561;55.654;37.592;2023-02-15T03:48:45;7.50;;;2.00;;
35442;SDS011;21561;55.654;37.592;2023-02-15T03:51:17;12.70;;;2.03;;
35442;SDS011;21561;55.654;37.592;2023-02-15T03:54:03;4.95;;;1.17;;
35442;SDS011;21561;55.654;37.592;2023-02-15T03:56:33;9.02;;;1.90;;
35442;SDS011;21561;55.654;37.592;2023-02-15T03:59:03;6.10;;;1.48;;
35442;SDS011;21561;55.654;37.592;2023-02-15T04:02:01;7.07;;;1.50;;
35442;SDS011;21561;55.654;37.592;2023-02-15T04:04:39;8.27;;;1.38;;
35442;SDS011;21561;55.654;37.592;2023-02-15T04:07:09;6.22;;;1.35;;
35442;SDS011;21561;55.654;37.592;2023-02-15T04:09:36;9.90;;;2.00;;
35442;SDS011;21561;55.654;37.592;2023-02-15T04:12:21;7.85;;;2.13;;
35442;SDS011;21561;55.654;37.592;2023-02-15T04:14:49;6.70;;;1.67;;
35442;SDS011;21561;55.654;37.592;2023-02-15T04:17:35;9.90;;;1.98;;
35442;SDS011;21561;55.654;37.592;2023-02-15T04:20:03;11.35;;;1.73;;
35442;SDS011;21561;55.654;37.592;2023-02-15T04:22:48;8.45;;;1.70;;
35442;SDS011;21561;55.654;37.592;2023-02-15T04:25:34;8.02;;;1.27;;
35442;SDS011;21561;55.654;37.592;2023-02-15T04:28:01;6.40;;;1.48;;
35442;SDS011;21561;55.654;37.592;2023-02-15T04:30:28;5.63;;;1.30;;
35442;SDS011;21561;55.654;37.592;2023-02-15T04:32:54;8.52;;;1.27;;
35442;SDS011;21561;55.654;37.592;2023-02-15T04:35:23;4.78;;;1.23;;
35442;SDS011;21561;55.654;37.592;2023-02-15T04:37:50;10.10;;;1.50;;
35442;SDS011;21561;55.654;37.592;2023-02-15T04:40:17;6.40;;;1.52;;
35442;SDS011;21561;55.654;37.592;2023-02-15T04:42:47;4.88;;;1.20;;
35442;SDS011;21561;55.654;37.592;2023-02-15T04:45:15;4.82;;;1.10;;
35442;SDS011;21561;55.654;37.592;2023-02-15T04:47:43;9.15;;;1.60;;
35442;SDS011;21561;55.654;37.592;2023-02-15T04:50:10;9.90;;;1.60;;
35442;SDS011;21561;55.654;37.592;2023-02-15T04:52:37;6.93;;;1.35;;
35442;SDS011;21561;55.654;37.592;2023-02-15T04:55:04;7.00;;;1.42;;
35442;SDS011;21561;55.654;37.592;2023-02-15T04:57:31;7.55;;;2.00;;
35442;SDS011;21561;55.654;37.592;2023-02-15T04:59:58;5.95;;;1.30;;
35442;SDS011;21561;55.654;37.592;2023-02-15T05:02:25;6.10;;;1.17;;
35442;SDS011;21561;55.654;37.592;2023-02-15T05:04:52;6.90;;;1.40;;
35442;SDS011;21561;55.654;37.592;2023-02-15T05:07:19;4.07;;;1.25;;
35442;SDS011;21561;55.654;37.592;2023-02-15T05:09:46;5.00;;;1.20;;
35442;SDS011;21561;55.654;37.592;2023-02-15T05:12:13;10.73;;;1.88;;
35442;SDS011;21561;55.654;37.592;2023-02-15T05:14:40;10.45;;;1.77;;
35442;SDS011;21561;55.654;37.592;2023-02-15T05:17:07;11.68;;;1.90;;
35442;SDS011;21561;55.654;37.592;2023-02-15T05:19:34;8.05;;;1.52;;
35442;SDS011;21561;55.654;37.592;2023-02-15T05:22:01;6.25;;;1.42;;
35442;SDS011;21561;55.654;37.592;2023-02-15T05:24:27;7.75;;;1.42;;
35442;SDS011;21561;55.654;37.592;2023-02-15T05:27:13;6.95;;;1.73;;
35442;SDS011;21561;55.654;37.592;2023-02-15T05:29:58;7.00;;;1.35;;
35442;SDS011;21561;55.654;37.592;2023-02-15T05:32:25;9.93;;;1.65;;
35442;SDS011;21561;55.654;37.592;2023-02-15T05:34:52;10.38;;;1.80;;
35442;SDS011;21561;55.654;37.592;2023-02-15T05:37:19;9.45;;;1.83;;
35442;SDS011;21561;55.654;37.592;2023-02-15T05:39:46;9.18;;;2.00;;
35442;SDS011;21561;55.654;37.592;2023-02-15T05:42:13;4.85;;;1.40;;
35442;SDS011;21561;55.654;37.592;2023-02-15T05:44:39;8.65;;;1.70;;
35442;SDS011;21561;55.654;37.592;2023-02-15T05:47:06;7.38;;;1.52;;
35442;SDS011;21561;55.654;37.592;2023-02-15T05:49:33;8.20;;;1.88;;
35442;SDS011;21561;55.654;37.592;2023-02-15T05:52:00;6.35;;;1.40;;
35442;SDS011;21561;55.654;37.592;2023-02-15T05:54:27;9.15;;;2.05;;
35442;SDS011;21561;55.654;37.592;2023-02-15T05:56:54;9.48;;;2.05;;
35442;SDS011;21561;55.654;37.592;2023-02-15T05:59:21;9.10;;;2.22;;
35442;SDS011;21561;55.654;37.592;2023-02-15T06:01:48;9.85;;;1.88;;
35442;SDS011;21561;55.654;37.592;2023-02-15T06:04:15;10.98;;;2.00;;
35442;SDS011;21561;55.654;37.592;2023-02-15T06:06:42;7.68;;;1.75;;
35442;SDS011;21561;55.654;37.592;2023-02-15T06:09:10;8.18;;;1.95;;
35442;SDS011;21561;55.654;37.592;2023-02-15T06:11:38;10.18;;;2.15;;
35442;SDS011;21561;55.654;37.592;2023-02-15T06:17:02;5.13;;;1.50;;
35442;SDS011;21561;55.654;37.592;2023-02-15T06:19:29;8.70;;;2.30;;
35442;SDS011;21561;55.654;37.592;2023-02-15T06:21:56;13.20;;;2.95;;
35442;SDS011;21561;55.654;37.592;2023-02-15T06:24:23;7.53;;;2.30;;
35442;SDS011;21561;55.654;37.592;2023-02-15T06:26:49;10.93;;;2.50;;
35442;SDS011;21561;55.654;37.592;2023-02-15T06:29:16;11.27;;;2.38;;
35442;SDS011;21561;55.654;37.592;2023-02-15T06:31:43;11.18;;;2.10;;
35442;SDS011;21561;55.654;37.592;2023-02-15T06:34:10;10.23;;;2.65;;
35442;SDS011;21561;55.654;37.592;2023-02-15T06:36:37;6.30;;;2.03;;
35442;SDS011;21561;55.654;37.592;2023-02-15T06:39:04;6.95;;;1.88;;
35442;SDS011;21561;55.654;37.592;2023-02-15T06:41:31;13.30;;;2.75;;
35442;SDS011;21561;55.654;37.592;2023-02-15T06:43:57;11.23;;;2.85;;
35442;SDS011;21561;55.654;37.592;2023-02-15T06:46:24;16.15;;;2.92;;
35442;SDS011;21561;55.654;37.592;2023-02-15T06:48:51;10.32;;;2.75;;
35442;SDS011;21561;55.654;37.592;2023-02-15T06:51:18;14.55;;;2.65;;
35442;SDS011;21561;55.654;37.592;2023-02-15T06:53:45;12.93;;;3.25;;
35442;SDS011;21561;55.654;37.592;2023-02-15T06:56:12;11.60;;;2.38;;
35442;SDS011;21561;55.654;37.592;2023-02-15T06:58:41;12.35;;;3.45;;
35442;SDS011;21561;55.654;37.592;2023-02-15T07:01:12;7.30;;;2.10;;
35442;SDS011;21561;55.654;37.592;2023-02-15T07:03:39;10.23;;;2.42;;
35442;SDS011;21561;55.654;37.592;2023-02-15T07:06:06;9.50;;;2.30;;
35442;SDS011;21561;55.654;37.592;2023-02-15T07:08:35;9.88;;;2.72;;
35442;SDS011;21561;55.654;37.592;2023-02-15T07:11:05;8.00;;;1.83;;
35442;SDS011;21561;55.654;37.592;2023-02-15T07:13:50;10.48;;;2.40;;
35442;SDS011;21561;55.654;37.592;2023-02-15T07:16:19;7.97;;;2.10;;
35442;SDS011;21561;55.654;37.592;2023-02-15T07:18:46;10.45;;;2.40;;
35442;SDS011;21561;55.654;37.592;2023-02-15T07:21:13;17.05;;;2.67;;
35442;SDS011;21561;55.654;37.592;2023-02-15T07:23:40;10.82;;;2.28;;
35442;SDS011;21561;55.654;37.592;2023-02-15T07:26:07;8.30;;;2.13;;
35442;SDS011;21561;55.654;37.592;2023-02-15T07:28:34;16.13;;;2.90;;
35442;SDS011;21561;55.654;37.592;2023-02-15T07:31:02;8.98;;;2.28;;
35442;SDS011;21561;55.654;37.592;2023-02-15T07:33:32;9.02;;;2.20;;
35442;SDS011;21561;55.654;37.592;2023-02-15T07:36:01;11.38;;;2.42;;
35442;SDS011;21561;55.654;37.592;2023-02-15T07:38:31;9.75;;;2.40;;
35442;SDS011;21561;55.654;37.592;2023-02-15T07:41:04;12.43;;;2.58;;
35442;SDS011;21561;55.654;37.592;2023-02-15T07:43:33;11.65;;;2.92;;
35442;SDS011;21561;55.654;37.592;2023-02-15T07:46:02;11.32;;;2.25;;
35442;SDS011;21561;55.654;37.592;2023-02-15T07:48:30;13.05;;;2.40;;
35442;SDS011;21561;55.654;37.592;2023-02-15T07:51:01;11.73;;;1.92;;
35442;SDS011;21561;55.654;37.592;2023-02-15T07:53:29;5.90;;;2.03;;
35442;SDS011;21561;55.654;37.592;2023-02-15T07:56:00;9.73;;;2.47;;
35442;SDS011;21561;55.654;37.592;2023-02-15T07:58:32;11.40;;;2.50;;
35442;SDS011;21561;55.654;37.592;2023-02-15T08:01:19;16.08;;;3.00;;
35442;SDS011;21561;55.654;37.592;2023-02-15T08:03:51;10.50;;;2.97;;
35442;SDS011;21561;55.654;37.592;2023-02-15T08:06:20;14.93;;;3.33;;
35442;SDS011;21561;55.654;37.592;2023-02-15T08:08:48;13.05;;;2.63;;
35442;SDS011;21561;55.654;37.592;2023-02-15T08:11:18;12.52;;;3.08;;
35442;SDS011;21561;55.654;37.592;2023-02-15T08:14:06;12.95;;;3.15;;
35442;SDS011;21561;55.654;37.592;2023-02-15T08:16:51;8.25;;;2.60;;
35442;SDS011;21561;55.654;37.592;2023-02-15T08:19:22;13.68;;;2.78;;
35442;SDS011;21561;55.654;37.592;2023-02-15T08:22:03;8.05;;;2.45;;
35442;SDS011;21561;55.654;37.592;2023-02-15T08:24:33;11.48;;;2.15;;
35442;SDS011;21561;55.654;37.592;2023-02-15T08:27:08;11.52;;;2.67;;
35442;SDS011;21561;55.654;37.592;2023-02-15T08:29:36;7.13;;;1.85;;
35442;SDS011;21561;55.654;37.592;2023-02-15T08:32:07;10.23;;;2.47;;
35442;SDS011;21561;55.654;37.592;2023-02-15T08:34:38;10.63;;;2.28;;
35442;SDS011;21561;55.654;37.592;2023-02-15T08:37:06;6.32;;;1.95;;
35442;SDS011;21561;55.654;37.592;2023-02-15T08:39:33;13.93;;;2.35;;
35442;SDS011;21561;55.654;37.592;2023-02-15T08:42:00;7.95;;;1.73;;
35442;SDS011;21561;55.654;37.592;2023-02-15T08:44:27;13.38;;;2.67;;
35442;SDS011;21561;55.654;37.592;2023-02-15T08:46:54;14.50;;;3.00;;
35442;SDS011;21561;55.654;37.592;2023-02-15T08:49:23;11.63;;;2.47;;
35442;SDS011;21561;55.654;37.592;2023-02-15T08:51:50;9.10;;;2.30;;
35442;SDS011;21561;55.654;37.592;2023-02-15T08:54:18;6.47;;;1.75;;
35442;SDS011;21561;55.654;37.592;2023-02-15T08:56:47;12.50;;;2.53;;
35442;SDS011;21561;55.654;37.592;2023-02-15T08:59:16;11.25;;;2.58;;
35442;SDS011;21561;55.654;37.592;2023-02-15T09:01:45;7.85;;;2.15;;
35442;SDS011;21561;55.654;37.592;2023-02-15T09:04:13;8.02;;;2.17;;
35442;SDS011;21561;55.654;37.592;2023-02-15T09:06:42;7.60;;;1.90;;
35442;SDS011;21561;55.654;37.592;2023-02-15T09:09:13;7.50;;;1.95;;
35442;SDS011;21561;55.654;37.592;2023-02-15T09:11:42;9.50;;;1.92;;
35442;SDS011;21561;55.654;37.592;2023-02-15T09:14:11;7.30;;;2.28;;
35442;SDS011;21561;55.654;37.592;2023-02-15T09:16:40;8.75;;;2.20;;
35442;SDS011;21561;55.654;37.592;2023-02-15T09:19:11;6.82;;;1.77;;
35442;SDS011;21561;55.654;37.592;2023-02-15T09:21:38;7.15;;;1.52;;
35442;SDS011;21561;55.654;37.592;2023-02-15T09:24:06;7.40;;;1.60;;
35442;SDS011;21561;55.654;37.592;2023-02-15T09:26:38;8.52;;;2.00;;
35442;SDS011;21561;55.654;37.592;2023-02-15T09:29:08;13.50;;;2.83;;
35442;SDS011;21561;55.654;37.592;2023-02-15T09:31:40;7.93;;;2.20;;
35442;SDS011;21561;55.654;37.592;2023-02-15T09:34:11;6.63;;;1.45;;
35442;SDS011;21561;55.654;37.592;2023-02-15T09:36:39;8.23;;;2.03;;
35442;SDS011;21561;55.654;37.592;2023-02-15T09:39:09;6.30;;;1.80;;
35442;SDS011;21561;55.654;37.592;2023-02-15T09:44:38;6.65;;;1.73;;
35442;SDS011;21561;55.654;37.592;2023-02-15T09:51:28;9.10;;;2.10;;
35442;SDS011;21561;55.654;37.592;2023-02-15T10:08:23;6.47;;;1.67;;
35442;SDS011;21561;55.654;37.592;2023-02-15T10:14:02;12.35;;;2.00;;
35442;SDS011;21561;55.654;37.592;2023-02-15T10:26:59;9.50;;;2.40;;
35442;SDS011;21561;55.654;37.592;2023-02-15T10:29:35;10.95;;;2.30;;
35442;SDS011;21561;55.654;37.592;2023-02-15T10:34:56;10.90;;;3.08;;
35442;SDS011;21561;55.654;37.592;2023-02-15T10:40:37;7.28;;;1.70;;
35442;SDS011;21561;55.654;37.592;2023-02-15T10:50:50;7.05;;;2.25;;
35442;SDS011;21561;55.654;37.592;2023-02-15T10:53:36;14.05;;;2.63;;
35442;SDS011;21561;55.654;37.592;2023-02-15T10:57:00;5.72;;;1.80;;
35442;SDS011;21561;55.654;37.592;2023-02-15T11:05:02;6.55;;;1.90;;
35442;SDS011;21561;55.654;37.592;2023-02-15T11:07:54;4.68;;;1.27;;
35442;SDS011;21561;55.654;37.592;2023-02-15T11:10:33;6.47;;;1.90;;
35442;SDS011;21561;55.654;37.592;2023-02-15T11:13:09;5.50;;;1.70;;
35442;SDS011;21561;55.654;37.592;2023-02-15T11:18:32;9.38;;;1.90;;
35442;SDS011;21561;55.654;37.592;2023-02-15T11:23:54;9.38;;;1.88;;
35442;SDS011;21561;55.654;37.592;2023-02-15T11:26:26;5.10;;;1.45;;
35442;SDS011;21561;55.654;37.592;2023-02-15T11:29:22;7.40;;;1.63;;
35442;SDS011;21561;55.654;37.592;2023-02-15T11:32:13;6.55;;;1.50;;
35442;SDS011;21561;55.654;37.592;2023-02-15T11:34:56;7.03;;;1.55;;
35442;SDS011;21561;55.654;37.592;2023-02-15T11:37:27;7.25;;;1.67;;
35442;SDS011;21561;55.654;37.592;2023-02-15T11:40:20;5.70;;;1.73;;
35442;SDS011;21561;55.654;37.592;2023-02-15T11:42:53;5.88;;;1.67;;
35442;SDS011;21561;55.654;37.592;2023-02-15T11:45:26;5.65;;;1.38;;
35442;SDS011;21561;55.654;37.592;2023-02-15T11:47:56;5.45;;;2.05;;
35442;SDS011;21561;55.654;37.592;2023-02-15T11:50:28;4.70;;;1.27;;
35442;SDS011;21561;55.654;37.592;2023-02-15T11:53:16;6.72;;;1.73;;
35442;SDS011;21561;55.654;37.592;2023-02-15T11:55:51;5.88;;;1.40;;
35442;SDS011;21561;55.654;37.592;2023-02-15T11:58:33;5.82;;;1.40;;
35442;SDS011;21561;55.654;37.592;2023-02-15T12:01:11;5.05;;;1.27;;
35442;SDS011;21561;55.654;37.592;2023-02-15T12:03:45;4.22;;;1.23;;
35442;SDS011;21561;55.654;37.592;2023-02-15T12:06:20;2.53;;;0.75;;
35442;SDS011;21561;55.654;37.592;2023-02-15T12:11:42;3.63;;;0.98;;
35442;SDS011;21561;55.654;37.592;2023-02-15T12:14:10;5.10;;;1.30;;
35442;SDS011;21561;55.654;37.592;2023-02-15T12:19:23;8.75;;;1.58;;
35442;SDS011;21561;55.654;37.592;2023-02-15T12:21:59;6.32;;;1.40;;
35442;SDS011;21561;55.654;37.592;2023-02-15T12:24:38;6.00;;;1.40;;
35442;SDS011;21561;55.654;37.592;2023-02-15T12:29:56;3.05;;;0.95;;
35442;SDS011;21561;55.654;37.592;2023-02-15T12:32:35;7.05;;;1.35;;
35442;SDS011;21561;55.654;37.592;2023-02-15T12:35:14;7.70;;;1.15;;
35442;SDS011;21561;55.654;37.592;2023-02-15T12:37:55;6.20;;;1.23;;
35442;SDS011;21561;55.654;37.592;2023-02-15T12:40:27;5.43;;;1.30;;
35442;SDS011;21561;55.654;37.592;2023-02-15T12:42:57;5.95;;;1.67;;
35442;SDS011;21561;55.654;37.592;2023-02-15T12:45:26;8.75;;;1.67;;
35442;SDS011;21561;55.654;37.592;2023-02-15T12:48:09;3.95;;;1.17;;
35442;SDS011;21561;55.654;37.592;2023-02-15T12:50:43;6.57;;;1.80;;
35442;SDS011;21561;55.654;37.592;2023-02-15T12:56:02;4.10;;;1.40;;
35442;SDS011;21561;55.654;37.592;2023-02-15T13:01:41;2.58;;;0.82;;
35442;SDS011;21561;55.654;37.592;2023-02-15T13:04:22;4.32;;;1.27;;
35442;SDS011;21561;55.654;37.592;2023-02-15T13:06:54;2.72;;;0.80;;
35442;SDS011;21561;55.654;37.592;2023-02-15T13:09:37;1.90;;;0.75;;
35442;SDS011;21561;55.654;37.592;2023-02-15T13:12:25;2.75;;;0.43;;
35442;SDS011;21561;55.654;37.592;2023-02-15T13:15:00;1.27;;;0.50;;
35442;SDS011;21561;55.654;37.592;2023-02-15T13:17:30;3.03;;;0.90;;
35442;SDS011;21561;55.654;37.592;2023-02-15T13:20:02;2.70;;;0.70;;
35442;SDS011;21561;55.654;37.592;2023-02-15T13:22:38;1.73;;;0.75;;
35442;SDS011;21561;55.654;37.592;2023-02-15T13:25:11;2.75;;;0.93;;
35442;SDS011;21561;55.654;37.592;2023-02-15T13:27:44;2.95;;;0.98;;
35442;SDS011;21561;55.654;37.592;2023-02-15T13:30:22;7.85;;;1.10;;
35442;SDS011;21561;55.654;37.592;2023-02-15T13:32:56;6.28;;;0.80;;
35442;SDS011;21561;55.654;37.592;2023-02-15T13:35:28;3.20;;;0.80;;
35442;SDS011;21561;55.654;37.592;2023-02-15T13:38:06;4.10;;;0.73;;
35442;SDS011;21561;55.654;37.592;2023-02-15T13:43:39;4.75;;;1.17;;
35442;SDS011;21561;55.654;37.592;2023-02-15T14:00:25;6.50;;;1.58;;
35442;SDS011;21561;55.654;37.592;2023-02-15T14:03:39;5.32;;;1.30;;
35442;SDS011;21561;55.654;37.592;2023-02-15T14:06:14;6.35;;;1.30;;
35442;SDS011;21561;55.654;37.592;2023-02-15T14:11:41;4.40;;;0.80;;
35442;SDS011;21561;55.654;37.592;2023-02-15T14:15:04;3.85;;;1.00;;
35442;SDS011;21561;55.654;37.592;2023-02-15T14:17:34;2.50;;;0.70;;
35442;SDS011;21561;55.654;37.592;2023-02-15T14:25:31;6.22;;;1.55;;
35442;SDS011;21561;55.654;37.592;2023-02-15T14:30:52;5.97;;;1.27;;
35442;SDS011;21561;55.654;37.592;2023-02-15T14:35:47;5.03;;;1.17;;
35442;SDS011;21561;55.654;37.592;2023-02-15T14:41:20;3.35;;;1.10;;
35442;SDS011;21561;55.654;37.592;2023-02-15T14:44:11;4.88;;;1.42;;
35442;SDS011;21561;55.654;37.592;2023-02-15T14:46:50;8.48;;;2.00;;
35442;SDS011;21561;55.654;37.592;2023-02-15T14:49:39;4.60;;;1.33;;
35442;SDS011;21561;55.654;37.592;2023-02-15T14:52:07;5.72;;;1.48;;
35442;SDS011;21561;55.654;37.592;2023-02-15T15:03:01;3.70;;;1.40;;
35442;SDS011;21561;55.654;37.592;2023-02-15T15:05:21;4.65;;;1.40;;
35442;SDS011;21561;55.654;37.592;2023-02-15T15:07:57;5.68;;;1.13;;
35442;SDS011;21561;55.654;37.592;2023-02-15T15:12:53;4.65;;;1.48;;
35442;SDS011;21561;55.654;37.592;2023-02-15T15:18:07;5.53;;;1.55;;
35442;SDS011;21561;55.654;37.592;2023-02-15T15:20:50;5.28;;;1.50;;
35442;SDS011;21561;55.654;37.592;2023-02-15T15:25:49;3.42;;;1.40;;
35442;SDS011;21561;55.654;37.592;2023-02-15T15:43:18;3.17;;;1.40;;
35442;SDS011;21561;55.654;37.592;2023-02-15T15:49:02;2.60;;;0.90;;
35442;SDS011;21561;55.654;37.592;2023-02-15T15:51:35;5.18;;;1.42;;
35442;SDS011;21561;55.654;37.592;2023-02-15T15:54:11;6.28;;;1.73;;
35442;SDS011;21561;55.654;37.592;2023-02-15T15:56:43;3.55;;;1.52;;
35442;SDS011;21561;55.654;37.592;2023-02-15T16:01:49;4.45;;;1.50;;
35442;SDS011;21561;55.654;37.592;2023-02-15T16:04:26;7.47;;;1.90;;
35442;SDS011;21561;55.654;37.592;2023-02-15T16:07:42;6.15;;;1.70;;
35442;SDS011;21561;55.654;37.592;2023-02-15T16:12:46;3.20;;;1.08;;
35442;SDS011;21561;55.654;37.592;2023-02-15T16:15:16;4.35;;;1.20;;
35442;SDS011;21561;55.654;37.592;2023-02-15T16:17:50;2.97;;;0.90;;
35442;SDS011;21561;55.654;37.592;2023-02-15T16:20:22;1.63;;;0.70;;
35442;SDS011;21561;55.654;37.592;2023-02-15T16:22:53;3.83;;;0.95;;
35442;SDS011;21561;55.654;37.592;2023-02-15T16:28:15;2.38;;;0.98;;
35442;SDS011;21561;55.654;37.592;2023-02-15T16:30:44;4.47;;;1.30;;
35442;SDS011;21561;55.654;37.592;2023-02-15T16:33:13;4.90;;;1.15;;
35442;SDS011;21561;55.654;37.592;2023-02-15T16:35:58;2.60;;;1.20;;
35442;SDS011;21561;55.654;37.592;2023-02-15T16:41:12;6.10;;;1.48;;
35442;SDS011;21561;55.654;37.592;2023-02-15T16:43:42;6.50;;;1.10;;
35442;SDS011;21561;55.654;37.592;2023-02-15T16:46:18;4.15;;;1.27;;
35442;SDS011;21561;55.654;37.592;2023-02-15T16:48:54;2.10;;;1.00;;
35442;SDS011;21561;55.654;37.592;2023-02-15T16:51:25;4.40;;;1.10;;
35442;SDS011;21561;55.654;37.592;2023-02-15T16:53:54;3.33;;;1.15;;
35442;SDS011;21561;55.654;37.592;2023-02-15T16:56:24;3.60;;;0.95;;
35442;SDS011;21561;55.654;37.592;2023-02-15T16:58:54;2.90;;;1.08;;
35442;SDS011;21561;55.654;37.592;2023-02-15T17:01:25;3.70;;;0.77;;
35442;SDS011;21561;55.654;37.592;2023-02-15T17:04:11;1.73;;;0.70;;
35442;SDS011;21561;55.654;37.592;2023-02-15T17:07:01;8.02;;;1.73;;
35442;SDS011;21561;55.654;37.592;2023-02-15T17:09:48;2.83;;;1.02;;
35442;SDS011;21561;55.654;37.592;2023-02-15T17:15:25;3.47;;;1.35;;
35442;SDS011;21561;55.654;37.592;2023-02-15T17:17:58;2.28;;;1.00;;
35442;SDS011;21561;55.654;37.592;2023-02-15T17:20:29;3.35;;;1.08;;
35442;SDS011;21561;55.654;37.592;2023-02-15T17:22:59;5.15;;;1.30;;
35442;SDS011;21561;55.654;37.592;2023-02-15T17:25:33;3.58;;;1.25;;
35442;SDS011;21561;55.654;37.592;2023-02-15T17:28:04;4.47;;;1.20;;
35442;SDS011;21561;55.654;37.592;2023-02-15T17:30:33;2.42;;;1.20;;
35442;SDS011;21561;55.654;37.592;2023-02-15T17:33:04;3.22;;;1.33;;
35442;SDS011;21561;55.654;37.592;2023-02-15T17:36:01;3.15;;;1.20;;
35442;SDS011;21561;55.654;37.592;2023-02-15T17:38:37;4.95;;;1.27;;
35442;SDS011;21561;55.654;37.592;2023-02-15T17:41:06;3.77;;;1.10;;
35442;SDS011;21561;55.654;37.592;2023-02-15T17:43:33;4.78;;;1.40;;
35442;SDS011;21561;55.654;37.592;2023-02-15T17:46:00;3.25;;;1.20;;
35442;SDS011;21561;55.654;37.592;2023-02-15T17:50:58;4.88;;;1.30;;
35442;SDS011;21561;55.654;37.592;2023-02-15T17:53:30;4.07;;;1.05;;
35442;SDS011;21561;55.654;37.592;2023-02-15T17:55:57;3.88;;;1.30;;
35442;SDS011;21561;55.654;37.592;2023-02-15T17:58:24;3.85;;;1.15;;
35442;SDS011;21561;55.654;37.592;2023-02-15T18:00:54;3.78;;;1.30;;
35442;SDS011;21561;55.654;37.592;2023-02-15T18:06:26;5.32;;;1.20;;
35442;SDS011;21561;55.654;37.592;2023-02-15T18:09:18;4.85;;;1.55;;
35442;SDS011;21561;55.654;37.592;2023-02-15T18:12:14;5.22;;;1.40;;